Time;durP1;ratioP1;P1;durP2;ratioP2;P2;SDS_P1;SDS_P2;PMS_P1;PMS_P2;Temp;Humidity;BMP_temperature;BMP_pressure;BME280_temperature;BME280_humidity;BME280_pressure;Samples;Min_cycle;Max_cycle;Signal;HPM_P1;HPM_P2
2022/08/02 00:00:35;;;;;;;6.65;5.60;;;;;;;16.83;84.09;94477.09;1665613;84;21019;-55
2022/08/02 00:03:03;;;;;;;6.58;5.00;;;;;;;16.77;84.28;94477.69;1634318;85;21570;-55
2022/08/02 00:05:31;;;;;;;5.75;4.60;;;;;;;16.74;84.43;94471.09;1662394;85;21995;-55
2022/08/02 00:08:00;;;;;;;6.20;5.33;;;;;;;16.73;84.66;94474.38;1662843;85;20956;-54
2022/08/02 00:10:29;;;;;;;6.80;5.33;;;;;;;16.71;84.90;94479.67;1656433;85;20983;-54
2022/08/02 00:12:57;;;;;;;9.68;5.62;;;;;;;16.70;85.02;94482.32;1668955;85;21019;-54
2022/08/02 00:15:25;;;;;;;8.48;5.83;;;;;;;16.63;84.87;94470.25;1657104;85;21528;-55
2022/08/02 00:17:53;;;;;;;7.70;5.58;;;;;;;16.53;85.08;94473.83;1667451;85;22232;-55
2022/08/02 00:20:21;;;;;;;5.78;5.22;;;;;;;16.48;85.39;94470.99;1677362;85;21047;-55
2022/08/02 00:22:49;;;;;;;8.10;5.37;;;;;;;16.49;85.52;94479.45;1666375;84;21043;-55
2022/08/02 00:25:18;;;;;;;6.58;5.97;;;;;;;16.50;85.69;94480.98;1648170;86;21455;-55
2022/08/02 00:27:45;;;;;;;6.05;5.42;;;;;;;16.51;85.55;94480.50;1648602;85;21022;-55
2022/08/02 00:30:13;;;;;;;7.00;5.60;;;;;;;16.50;85.48;94482.37;1640111;86;22390;-55
2022/08/02 00:32:41;;;;;;;10.08;5.70;;;;;;;16.48;85.58;94480.72;1677435;85;21098;-55
2022/08/02 00:35:09;;;;;;;6.75;5.30;;;;;;;16.45;85.52;94483.86;1664007;85;21455;-54
2022/08/02 00:37:42;;;;;;;11.63;5.87;;;;;;;16.44;85.40;94485.12;1679424;84;21442;-56
2022/08/02 00:40:11;;;;;;;6.25;5.65;;;;;;;16.37;85.38;94484.80;1639818;85;21125;-54
2022/08/02 00:42:39;;;;;;;6.85;6.15;;;;;;;16.33;86.07;94485.61;1659551;85;21139;-55
2022/08/02 00:45:08;;;;;;;7.62;6.28;;;;;;;16.31;86.16;94487.48;1640907;86;20964;-54
2022/08/02 00:47:36;;;;;;;6.25;5.65;;;;;;;16.29;86.39;94490.59;1655187;85;20967;-54
2022/08/02 00:50:05;;;;;;;7.85;5.42;;;;;;;16.30;86.54;94490.13;1653998;85;21075;-54
2022/08/02 00:52:33;;;;;;;6.62;5.92;;;;;;;16.29;86.58;94490.59;1630581;85;21070;-54
2022/08/02 00:55:01;;;;;;;8.78;6.53;;;;;;;16.24;86.42;94498.89;1650885;85;21254;-54
2022/08/02 00:57:29;;;;;;;12.68;7.45;;;;;;;16.15;86.56;94496.27;1639677;86;21740;-54
2022/08/02 00:59:57;;;;;;;9.28;6.62;;;;;;;16.10;87.10;94501.13;1647845;85;20979;-55
2022/08/02 01:02:25;;;;;;;6.33;5.72;;;;;;;16.06;87.07;94499.20;1659702;85;20979;-55
2022/08/02 01:04:53;;;;;;;6.45;5.42;;;;;;;16.06;87.31;94494.41;1653967;85;21114;-54
2022/08/02 01:07:21;;;;;;;6.67;5.97;;;;;;;16.04;87.32;94496.91;1653771;85;21138;-55
2022/08/02 01:09:49;;;;;;;6.65;5.70;;;;;;;16.01;87.76;94497.11;1659666;85;21493;-54
2022/08/02 01:12:18;;;;;;;6.70;5.30;;;;;;;15.97;87.79;94489.02;1637131;85;21143;-55
2022/08/02 01:14:49;;;;;;;7.05;5.87;;;;;;;16.00;87.87;94496.97;1633631;85;20995;-55
2022/08/02 01:17:48;;;;;;;8.55;6.10;;;;;;;16.01;87.98;94492.34;1668495;85;20979;-55
2022/08/02 01:20:43;;;;;;;8.73;6.25;;;;;;;16.04;88.12;94487.80;1661227;85;21322;-53
2022/08/02 01:23:44;;;;;;;6.00;4.92;;;;;;;16.05;87.97;94491.49;1621303;86;21037;-55
2022/08/02 01:26:29;;;;;;;5.70;5.03;;;;;;;16.06;88.00;94482.55;1612574;87;21027;-55
2022/08/02 01:29:23;;;;;;;8.13;6.08;;;;;;;16.00;87.71;94484.48;1649302;85;20972;-55
2022/08/02 01:32:04;;;;;;;6.22;5.62;;;;;;;15.95;88.05;94485.94;1646784;85;21053;-55
2022/08/02 01:34:57;;;;;;;8.43;6.15;;;;;;;15.95;88.12;94483.16;1670444;84;21259;-55
2022/08/02 01:37:39;;;;;;;8.03;5.10;;;;;;;15.93;87.93;94485.67;1671086;84;21007;-54
2022/08/02 01:40:11;;;;;;;5.87;5.30;;;;;;;15.87;87.89;94484.86;1670044;85;20983;-54
2022/08/02 01:42:43;;;;;;;8.98;5.65;;;;;;;15.86;88.10;94486.72;1674084;84;20995;-54
2022/08/02 01:45:11;;;;;;;6.65;5.95;;;;;;;15.85;88.33;94484.58;1668041;85;21581;-54
2022/08/02 01:47:40;;;;;;;8.98;5.55;;;;;;;15.81;88.33;94482.65;1661034;85;21160;-54
2022/08/02 01:50:10;;;;;;;6.20;5.53;;;;;;;15.77;88.36;94476.53;1671376;84;21087;-55
2022/08/02 01:52:40;;;;;;;8.28;5.53;;;;;;;15.71;88.08;94474.33;1655156;85;21443;-54
2022/08/02 01:55:25;;;;;;;7.15;4.90;;;;;;;15.64;87.61;94481.69;1656995;85;20984;-54
2022/08/02 01:57:57;;;;;;;6.53;5.70;;;;;;;15.59;87.70;94475.45;1666399;85;21500;-54
2022/08/02 02:00:27;;;;;;;6.50;5.50;;;;;;;15.54;87.70;94482.31;1644824;85;21931;-54
2022/08/02 02:02:56;;;;;;;6.72;5.20;;;;;;;15.50;87.72;94481.13;1629812;86;21071;-54
2022/08/02 02:05:27;;;;;;;8.03;5.08;;;;;;;15.42;87.52;94481.41;1656031;85;21559;-54
2022/08/02 02:07:59;;;;;;;8.70;5.05;;;;;;;15.38;87.60;94487.77;1649724;85;21658;-54
2022/08/02 02:10:32;;;;;;;5.25;4.67;;;;;;;15.35;87.62;94490.13;1646379;85;21468;-54
2022/08/02 02:13:09;;;;;;;7.80;6.08;;;;;;;15.31;87.49;94490.17;1672030;85;21143;-54
2022/08/02 02:15:41;;;;;;;6.90;5.78;;;;;;;15.22;87.46;94492.42;1671381;85;20959;-55
2022/08/02 02:18:08;;;;;;;6.08;5.47;;;;;;;15.11;87.56;94489.52;1668551;84;21039;-55
2022/08/02 02:20:36;;;;;;;9.80;5.60;;;;;;;15.03;87.67;94486.98;1661765;85;20976;-54
2022/08/02 02:23:04;;;;;;;6.55;5.00;;;;;;;15.01;88.00;94493.63;1661277;85;21020;-54
2022/08/02 02:25:31;;;;;;;5.35;4.85;;;;;;;14.99;87.99;94491.22;1658386;85;21133;-55
2022/08/02 02:28:10;;;;;;;10.78;6.83;;;;;;;14.93;88.24;94489.75;1667712;85;21034;-54
2022/08/02 02:30:42;;;;;;;7.50;5.62;;;;;;;14.88;88.40;94488.27;1645291;85;21082;-54
2022/08/02 02:33:10;;;;;;;8.17;5.97;;;;;;;14.81;88.49;94495.59;1619841;88;21424;-54
2022/08/02 02:35:39;;;;;;;5.87;5.25;;;;;;;14.75;88.65;94495.51;1603227;88;20972;-55
2022/08/02 02:38:10;;;;;;;5.85;5.12;;;;;;;14.71;88.71;94490.02;1634175;87;21264;-54
2022/08/02 02:40:38;;;;;;;9.25;5.17;;;;;;;14.64;89.09;94501.49;1637363;85;20957;-54
2022/08/02 02:43:06;;;;;;;5.65;5.15;;;;;;;14.61;89.53;94498.30;1609214;86;21057;-55
2022/08/02 02:45:35;;;;;;;5.92;5.12;;;;;;;14.58;89.46;94493.09;1647713;86;21083;-54
2022/08/02 02:48:04;;;;;;;6.70;4.85;;;;;;;14.57;89.50;94497.70;1652460;85;21042;-54
2022/08/02 02:50:32;;;;;;;7.45;5.10;;;;;;;14.52;89.54;94495.02;1672374;84;21618;-55
2022/08/02 02:53:01;;;;;;;6.80;5.42;;;;;;;14.50;89.87;94494.73;1647404;85;20975;-54
2022/08/02 02:55:29;;;;;;;5.35;4.78;;;;;;;14.47;89.78;94497.05;1678948;84;21183;-54
2022/08/02 02:57:57;;;;;;;8.03;4.80;;;;;;;14.46;90.15;94490.63;1644980;85;21035;-55
2022/08/02 03:03:13;;;;;;;6.87;4.87;;;;;;;14.42;89.71;94494.81;1639369;86;21170;-55
2022/08/02 03:05:41;;;;;;;5.22;4.72;;;;;;;14.37;89.71;94502.41;1640483;87;21572;-55
2022/08/02 03:08:08;;;;;;;6.45;5.03;;;;;;;14.36;90.08;94501.62;1633723;86;21026;-55
2022/08/02 03:10:36;;;;;;;7.03;4.90;;;;;;;14.35;89.69;94506.27;1625662;86;20997;-55
2022/08/02 03:13:04;;;;;;;6.42;5.47;;;;;;;14.35;89.68;94502.12;1653229;85;21034;-54
2022/08/02 03:15:33;;;;;;;8.30;5.03;;;;;;;14.34;89.42;94499.97;1654064;85;21240;-54
2022/08/02 03:18:00;;;;;;;6.50;5.05;;;;;;;14.30;89.50;94501.38;1625797;86;21023;-54
2022/08/02 03:20:28;;;;;;;9.03;5.03;;;;;;;14.24;89.33;94504.69;1654530;85;21162;-55
2022/08/02 03:22:57;;;;;;;6.87;4.90;;;;;;;14.16;89.44;94505.68;1655430;85;20999;-54
2022/08/02 03:25:25;;;;;;;6.35;4.72;;;;;;;14.13;89.75;94501.07;1666765;84;21763;-55
2022/08/02 03:27:53;;;;;;;5.85;5.25;;;;;;;14.11;89.96;94511.85;1652293;85;21264;-55
2022/08/02 03:30:25;;;;;;;6.05;5.45;;;;;;;14.10;90.11;94509.55;1649195;85;21114;-54
2022/08/02 03:32:51;;;;;;;7.55;6.12;;;;;;;14.10;90.42;94512.31;1661272;85;21857;-56
2022/08/02 03:35:19;;;;;;;5.83;5.08;;;;;;;14.13;90.57;94512.14;1672031;85;20995;-54
2022/08/02 03:37:48;;;;;;;7.10;5.40;;;;;;;14.16;90.53;94512.59;1661199;85;21571;-56
2022/08/02 03:40:16;;;;;;;9.70;5.58;;;;;;;14.15;90.44;94516.57;1657387;85;21985;-54
2022/08/02 03:42:44;;;;;;;7.10;5.83;;;;;;;14.11;90.32;94513.23;1661229;85;21067;-54
2022/08/02 03:45:12;;;;;;;7.25;5.75;;;;;;;14.07;90.68;94513.27;1669262;84;20989;-54
2022/08/02 03:47:40;;;;;;;6.47;5.87;;;;;;;14.08;91.08;94525.86;1667059;84;21526;-54
2022/08/02 03:50:11;;;;;;;6.30;5.00;;;;;;;14.13;91.29;94528.73;1651682;85;20999;-54
2022/08/02 03:52:41;;;;;;;11.83;5.47;;;;;;;14.18;91.29;94524.58;1634744;85;21289;-54
2022/08/02 03:55:10;;;;;;;6.87;5.45;;;;;;;14.17;91.24;94523.05;1615116;88;21100;-54
2022/08/02 03:57:39;;;;;;;9.93;6.22;;;;;;;14.17;91.39;94521.03;1669207;85;21016;-55
2022/08/02 04:00:08;;;;;;;6.97;5.53;;;;;;;14.17;91.31;94516.14;1669213;85;21098;-55
2022/08/02 04:02:38;;;;;;;12.18;5.45;;;;;;;14.16;91.25;94524.30;1639485;86;21075;-54
2022/08/02 04:05:07;;;;;;;15.72;8.83;;;;;;;14.19;91.38;94528.87;1681989;84;21193;-55
2022/08/02 04:07:36;;;;;;;25.20;11.50;;;;;;;14.24;91.82;94534.52;1618435;86;21043;-54
2022/08/02 04:10:05;;;;;;;20.62;11.63;;;;;;;14.31;91.60;94533.35;1649725;86;21063;-54
2022/08/02 04:12:33;;;;;;;13.83;7.50;;;;;;;14.34;91.94;94537.96;1664181;85;21117;-55
2022/08/02 04:15:01;;;;;;;6.25;5.65;;;;;;;14.39;91.81;94535.91;1647099;86;21470;-54
2022/08/02 04:17:31;;;;;;;7.35;5.45;;;;;;;14.43;91.65;94540.77;1661360;85;21246;-54
2022/08/02 04:20:10;;;;;;;9.28;5.70;;;;;;;14.49;91.66;94543.00;1679343;85;21031;-55
2022/08/02 04:22:46;;;;;;;6.72;6.10;;;;;;;14.56;91.64;94545.41;1661716;85;21099;-55
2022/08/02 04:25:14;;;;;;;7.17;5.35;;;;;;;14.66;91.62;94537.13;1671926;85;21023;-54
2022/08/02 04:27:42;;;;;;;7.20;5.33;;;;;;;14.75;91.09;94537.05;1656571;85;21082;-54
2022/08/02 04:30:12;;;;;;;7.30;4.92;;;;;;;14.81;90.82;94537.89;1639316;85;21275;-56
2022/08/02 04:32:40;;;;;;;6.40;5.62;;;;;;;14.91;90.63;94540.72;1653446;84;20960;-55
2022/08/02 04:35:08;;;;;;;6.53;5.62;;;;;;;14.99;90.48;94539.06;1680144;85;21014;-57
2022/08/02 04:37:37;;;;;;;8.50;6.03;;;;;;;15.07;90.27;94537.44;1665200;84;21066;-54
2022/08/02 04:40:11;;;;;;;6.30;5.67;;;;;;;15.16;89.91;94546.27;1644171;86;21031;-52
2022/08/02 04:42:40;;;;;;;12.82;5.20;;;;;;;15.26;89.47;94544.28;1661133;84;21236;-54
2022/08/02 04:45:09;;;;;;;10.90;5.12;;;;;;;15.38;88.94;94541.81;1662578;85;21071;-58
2022/08/02 04:47:38;;;;;;;8.70;5.25;;;;;;;15.47;88.56;94540.32;1678431;84;20979;-59
2022/08/02 04:50:07;;;;;;;6.47;5.78;;;;;;;15.60;88.36;94547.70;1660161;84;21000;-56
2022/08/02 04:52:34;;;;;;;5.75;5.15;;;;;;;15.71;87.78;94542.28;1661789;84;21022;-55
2022/08/02 04:55:04;;;;;;;10.10;4.95;;;;;;;15.81;87.27;94540.91;1663737;84;21273;-55
2022/08/02 05:00:18;;;;;;;6.33;5.45;;;;;;;16.01;85.09;94539.51;1663270;85;21024;-55
2022/08/02 05:02:46;;;;;;;6.12;5.17;;;;;;;16.01;84.33;94545.06;1668859;85;21034;-55
2022/08/02 05:05:14;;;;;;;6.75;5.15;;;;;;;16.04;83.87;94547.47;1651703;86;21604;-55
2022/08/02 05:07:42;;;;;;;10.32;5.15;;;;;;;16.07;83.65;94552.07;1679837;84;21891;-55
2022/08/02 05:10:11;;;;;;;9.60;5.90;;;;;;;16.14;83.79;94553.80;1645432;85;20975;-55
2022/08/02 05:12:39;;;;;;;12.15;6.22;;;;;;;16.28;83.81;94546.63;1659066;84;20996;-55
2022/08/02 05:15:09;;;;;;;6.33;5.50;;;;;;;16.36;83.48;94547.88;1650678;85;20980;-56
2022/08/02 05:17:37;;;;;;;10.00;6.00;;;;;;;16.44;83.32;94555.16;1654449;84;21008;-55
2022/08/02 05:20:06;;;;;;;6.65;4.60;;;;;;;16.51;83.40;94550.58;1680640;84;21256;-56
2022/08/02 05:22:34;;;;;;;11.97;5.97;;;;;;;16.64;82.96;94553.71;1675501;84;21534;-55
2022/08/02 05:25:03;;;;;;;9.45;5.62;;;;;;;16.78;82.26;94551.45;1655461;85;21079;-56
2022/08/02 05:27:32;;;;;;;21.30;17.12;;;;;;;16.91;81.99;94560.16;1655346;85;21110;-55
2022/08/02 05:30:00;;;;;;;9.80;8.00;;;;;;;17.01;81.34;94556.72;1639435;86;21016;-54
2022/08/02 05:32:28;;;;;;;8.65;5.55;;;;;;;17.12;81.06;94555.40;1655072;85;21995;-55
2022/08/02 05:34:56;;;;;;;6.33;5.00;;;;;;;17.27;80.73;94554.63;1668005;85;20987;-55
2022/08/02 05:37:24;;;;;;;10.38;5.22;;;;;;;17.44;80.17;94554.16;1655048;85;21003;-55
2022/08/02 05:39:52;;;;;;;7.45;4.97;;;;;;;17.56;79.24;94552.98;1650980;85;21325;-55
2022/08/02 05:42:20;;;;;;;7.35;5.67;;;;;;;17.66;78.34;94549.36;1607915;86;21101;-56
2022/08/02 05:44:49;;;;;;;7.75;5.80;;;;;;;17.73;77.91;94552.45;1664073;84;21784;-57
2022/08/02 05:47:19;;;;;;;6.72;5.55;;;;;;;17.82;77.81;94555.02;1679442;85;21014;-59
2022/08/02 05:49:46;;;;;;;9.00;5.42;;;;;;;17.95;77.41;94560.13;1654192;86;21084;-67
2022/08/02 05:52:16;;;;;;;6.00;5.10;;;;;;;18.07;76.71;94552.75;1660643;84;21113;-57
2022/08/02 05:55:13;;;;;;;8.63;4.87;;;;;;;18.21;76.00;94556.72;1674485;83;21066;-61
2022/08/02 05:58:05;;;;;;;8.50;5.35;;;;;;;18.30;75.22;94549.55;1644740;85;21797;-56
2022/08/02 06:00:37;;;;;;;9.67;5.57;;;;;;;18.41;74.74;94556.56;1643644;85;21164;-57
2022/08/02 06:03:27;;;;;;;6.80;4.87;;;;;;;18.53;74.34;94562.30;1665980;85;20983;-57
2022/08/02 06:06:12;;;;;;;6.50;4.47;;;;;;;18.63;73.79;94565.63;1663266;84;21117;-61
2022/08/02 06:08:44;;;;;;;9.93;4.90;;;;;;;18.74;73.44;94573.38;1659436;84;21070;-57
2022/08/02 06:11:18;;;;;;;6.08;5.30;;;;;;;18.86;72.68;94577.68;1649325;85;21156;-61
2022/08/02 06:13:48;;;;;;;13.28;6.28;;;;;;;18.97;72.14;94576.96;1635028;86;21507;-66
2022/08/02 06:16:16;;;;;;;5.78;5.20;;;;;;;19.09;72.60;94567.32;1637380;85;21156;-64
2022/08/02 06:18:45;;;;;;;7.33;5.30;;;;;;;19.21;72.55;94571.67;1638289;85;21090;-58
2022/08/02 06:21:14;;;;;;;6.08;4.47;;;;;;;19.29;71.98;94565.70;1587416;88;21397;-59
2022/08/02 06:23:42;;;;;;;7.95;4.78;;;;;;;19.36;70.37;94568.75;1589917;88;21724;-70
2022/08/02 06:26:10;;;;;;;5.67;4.97;;;;;;;19.44;69.71;94562.02;1590798;88;21058;-59
2022/08/02 06:28:39;;;;;;;5.10;4.33;;;;;;;19.55;70.13;94566.21;1655233;84;21534;-64
2022/08/02 06:31:09;;;;;;;5.85;4.35;;;;;;;19.73;70.45;94568.47;1665015;84;22111;-67
2022/08/02 06:33:37;;;;;;;5.05;4.10;;;;;;;19.89;69.80;94571.87;1625799;86;20981;-54
2022/08/02 06:36:18;;;;;;;12.73;4.28;;;;;;;20.05;69.50;94569.05;1652486;84;21341;-57
2022/08/02 06:38:56;;;;;;;8.73;4.58;;;;;;;20.16;67.99;94569.77;1641849;85;21128;-56
2022/08/02 06:41:25;;;;;;;6.80;5.60;;;;;;;20.25;66.18;94563.13;1642002;85;21053;-64
2022/08/02 06:44:03;;;;;;;6.33;4.92;;;;;;;20.31;64.83;94563.86;1662693;84;21307;-70
2022/08/02 06:46:30;;;;;;;7.00;4.30;;;;;;;20.39;64.13;94556.47;1670727;84;21534;-58
2022/08/02 06:48:57;;;;;;;6.12;4.60;;;;;;;20.45;63.85;94560.77;1659969;84;21766;-59
2022/08/02 06:51:25;;;;;;;8.15;3.98;;;;;;;20.54;63.32;94559.71;1645235;85;21065;-59
2022/08/02 06:53:53;;;;;;;5.50;4.87;;;;;;;20.60;62.18;94554.84;1658851;85;21116;-65
2022/08/02 06:56:21;;;;;;;8.08;3.90;;;;;;;20.60;62.29;94557.64;1647618;85;21522;-56
2022/08/02 06:58:49;;;;;;;9.93;4.20;;;;;;;20.65;61.64;94560.41;1615583;85;21084;-66
2022/08/02 07:01:17;;;;;;;4.50;4.05;;;;;;;20.62;61.01;94559.27;1660039;84;21210;-55
2022/08/02 07:03:46;;;;;;;8.68;5.42;;;;;;;20.57;60.74;94564.27;1633633;86;21060;-55
2022/08/02 07:06:15;;;;;;;7.00;4.37;;;;;;;20.57;60.81;94564.27;1647297;85;21038;-58
2022/08/02 07:08:44;;;;;;;8.55;4.28;;;;;;;20.62;60.47;94561.45;1644167;85;21026;-61
2022/08/02 07:11:12;;;;;;;13.78;5.70;;;;;;;20.70;60.83;94558.21;1662480;84;21085;-56
2022/08/02 07:13:40;;;;;;;4.55;3.50;;;;;;;20.82;60.72;94557.50;1653879;84;22362;-54
2022/08/02 07:16:08;;;;;;;5.72;3.40;;;;;;;20.93;58.74;94555.42;1657054;85;21422;-52
2022/08/02 07:18:37;;;;;;;5.67;5.10;;;;;;;20.98;57.89;94562.27;1654969;84;21020;-56
2022/08/02 07:21:05;;;;;;;5.95;3.58;;;;;;;21.03;57.43;94558.03;1635893;85;21131;-59
2022/08/02 07:23:33;;;;;;;7.12;3.30;;;;;;;21.12;57.22;94551.36;1624173;86;21077;-58
2022/08/02 07:26:03;;;;;;;4.65;2.90;;;;;;;21.23;56.71;94554.06;1657212;84;21550;-57
2022/08/02 07:28:31;;;;;;;4.17;3.27;;;;;;;21.37;56.56;94547.34;1660889;84;22245;-55
2022/08/02 07:30:59;;;;;;;5.35;3.17;;;;;;;21.48;56.10;94543.05;1642054;85;21050;-57
2022/08/02 07:33:27;;;;;;;2.80;2.50;;;;;;;21.57;55.38;94537.11;1629920;85;21207;-54
2022/08/02 07:35:57;;;;;;;3.20;2.90;;;;;;;21.63;55.53;94537.86;1657235;85;21617;-56
2022/08/02 07:38:26;;;;;;;3.83;2.75;;;;;;;21.67;55.31;94539.73;1652277;84;21354;-66
2022/08/02 07:40:54;;;;;;;5.42;3.02;;;;;;;21.73;55.25;94546.80;1655149;85;21088;-57
2022/08/02 07:43:23;;;;;;;4.87;2.92;;;;;;;21.80;54.56;94549.66;1645391;85;21725;-60
2022/08/02 07:45:52;;;;;;;2.90;2.60;;;;;;;21.87;53.06;94556.07;1636443;85;21049;-57
2022/08/02 07:48:21;;;;;;;4.17;2.85;;;;;;;21.87;52.60;94551.87;1652544;85;21126;-54
2022/08/02 07:50:49;;;;;;;4.53;2.70;;;;;;;21.87;52.30;94549.06;1671955;84;21331;-69
2022/08/02 07:53:18;;;;;;;4.45;2.55;;;;;;;21.93;52.67;94550.53;1654871;85;20934;-60
2022/08/02 07:55:50;;;;;;;7.25;4.00;;;;;;;22.03;51.92;94541.13;1669816;83;21051;-57
2022/08/02 07:58:22;;;;;;;4.60;2.80;;;;;;;22.10;52.80;94545.51;1655604;83;21078;-54
2022/08/02 08:00:51;;;;;;;3.40;2.65;;;;;;;22.22;53.08;94547.66;1651622;84;21089;-62
2022/08/02 08:03:19;;;;;;;3.12;2.83;;;;;;;22.35;52.59;94553.36;1666348;84;21256;-63
2022/08/02 08:05:48;;;;;;;6.37;2.60;;;;;;;22.47;52.27;94549.80;1671224;85;21160;-59
2022/08/02 08:08:16;;;;;;;3.80;3.20;;;;;;;22.60;51.50;94555.48;1657361;85;21061;-55
2022/08/02 08:10:45;;;;;;;5.90;3.70;;;;;;;22.70;51.97;94546.81;1658128;84;21549;-63
2022/08/02 08:13:13;;;;;;;4.40;3.47;;;;;;;22.82;51.94;94546.79;1653445;85;21232;-56
2022/08/02 08:15:42;;;;;;;3.60;3.12;;;;;;;22.92;51.41;94554.30;1635385;85;21164;-57
2022/08/02 08:18:11;;;;;;;3.95;2.72;;;;;;;23.03;51.10;94547.09;1648365;85;22269;-58
2022/08/02 08:20:39;;;;;;;5.65;2.50;;;;;;;23.11;50.68;94549.45;1642975;85;21089;-65
2022/08/02 08:23:08;;;;;;;3.47;2.70;;;;;;;23.15;50.15;94540.06;1655693;83;22290;-57
2022/08/02 08:25:35;;;;;;;2.87;2.60;;;;;;;23.21;50.42;94542.79;1647316;85;21043;-57
2022/08/02 08:28:05;;;;;;;2.37;2.17;;;;;;;23.26;49.99;94551.13;1653092;84;21805;-60
2022/08/02 08:30:33;;;;;;;3.67;2.12;;;;;;;23.34;49.83;94552.02;1669607;84;21089;-61
2022/08/02 08:33:18;;;;;;;4.12;2.95;;;;;;;23.45;49.65;94553.25;1645187;84;21520;-59
2022/08/02 08:35:48;;;;;;;8.33;6.08;;;;;;;23.51;48.60;94549.69;1623888;86;21091;-60
2022/08/02 08:38:16;;;;;;;4.37;3.27;;;;;;;23.54;49.31;94555.64;1618896;86;21511;-58
2022/08/02 08:40:45;;;;;;;3.45;2.83;;;;;;;23.68;50.00;94554.38;1651697;84;22081;-61
2022/08/02 08:43:18;;;;;;;3.08;2.72;;;;;;;23.84;50.27;94554.77;1625770;86;21054;-60
2022/08/02 08:45:50;;;;;;;6.25;5.65;;;;;;;23.96;49.21;94563.77;1643074;85;21109;-54
2022/08/02 08:48:18;;;;;;;16.70;3.25;;;;;;;23.98;48.52;94563.31;1650897;85;20995;-56
2022/08/02 08:50:56;;;;;;;4.58;2.42;;;;;;;23.95;48.36;94555.96;1653942;84;21058;-55
2022/08/02 08:53:26;;;;;;;2.60;2.40;;;;;;;24.02;48.41;94566.59;1644466;84;21173;-56
2022/08/02 08:55:56;;;;;;;2.77;2.50;;;;;;;24.15;46.61;94565.17;1636820;85;21625;-51
2022/08/02 08:58:24;;;;;;;2.77;2.58;;;;;;;24.16;47.03;94564.64;1664951;84;21410;-54
2022/08/02 09:00:57;;;;;;;3.22;2.33;;;;;;;24.21;46.95;94555.34;1657556;84;21117;-53
2022/08/02 09:03:25;;;;;;;2.62;2.37;;;;;;;24.29;48.15;94566.70;1638020;85;21547;-64
2022/08/02 09:05:53;;;;;;;4.95;2.90;;;;;;;24.32;45.10;94564.20;1650111;85;21891;-65
2022/08/02 09:08:20;;;;;;;2.77;2.40;;;;;;;24.39;46.71;94566.39;1625680;85;21648;-60
2022/08/02 09:10:48;;;;;;;3.08;2.22;;;;;;;24.50;45.66;94572.55;1640898;84;21073;-62
2022/08/02 09:13:28;;;;;;;4.12;2.25;;;;;;;24.58;45.48;94573.42;1615053;86;21006;-59
2022/08/02 09:15:59;;;;;;;5.17;2.70;;;;;;;24.58;43.91;94571.27;1650904;85;21062;-63
2022/08/02 09:18:35;;;;;;;3.15;2.85;;;;;;;24.57;44.48;94569.76;1645172;85;21229;-63
2022/08/02 09:21:08;;;;;;;4.08;2.60;;;;;;;24.60;44.55;94574.30;1606915;86;21023;-59
2022/08/02 09:23:41;;;;;;;2.40;2.20;;;;;;;24.60;45.47;94575.04;1653037;84;21335;-60
2022/08/02 09:26:15;;;;;;;5.47;2.62;;;;;;;24.63;45.66;94578.20;1618806;86;21017;-60
2022/08/02 09:28:55;;;;;;;2.45;2.02;;;;;;;24.73;46.46;94574.29;1634267;85;22032;-59
2022/08/02 09:31:24;;;;;;;2.35;2.10;;;;;;;24.82;45.94;94571.78;1650975;85;21193;-67
2022/08/02 09:33:59;;;;;;;2.30;2.10;;;;;;;24.91;44.57;94567.77;1647796;85;21545;-64
2022/08/02 09:36:29;;;;;;;3.08;2.45;;;;;;;25.01;45.20;94575.84;1666035;84;21301;-61
2022/08/02 09:39:01;;;;;;;2.40;2.20;;;;;;;25.08;44.12;94562.52;1657459;85;21077;-60
2022/08/02 09:41:30;;;;;;;;;;;;;;;25.19;44.95;94572.14;1663056;84;21035;-60
2022/08/02 09:43:59;;;;;;;4.17;2.10;;;;;;;25.33;43.78;94567.98;1646886;85;21230;-63
2022/08/02 09:46:29;;;;;;;9.83;2.02;;;;;;;25.43;43.75;94571.19;1637820;85;21071;-61
2022/08/02 09:49:02;;;;;;;4.70;2.60;;;;;;;25.35;43.88;94576.64;1659254;84;21483;-59
2022/08/02 09:51:39;;;;;;;2.50;2.30;;;;;;;25.25;44.68;94572.77;1647107;84;21536;-58
2022/08/02 09:54:20;;;;;;;2.17;1.87;;;;;;;25.27;43.84;94568.77;1662233;84;21128;-62
2022/08/02 09:56:53;;;;;;;4.72;2.20;;;;;;;25.36;43.21;94571.11;1639945;85;21167;-59
2022/08/02 09:59:23;;;;;;;3.22;1.77;;;;;;;25.51;43.14;94580.45;1660356;85;21521;-59
2022/08/02 10:01:52;;;;;;;3.52;2.40;;;;;;;25.66;41.28;94570.75;1627713;85;21178;-61
2022/08/02 10:04:23;;;;;;;3.05;2.55;;;;;;;25.71;41.88;94582.53;1663620;84;21061;-64
2022/08/02 10:06:53;;;;;;;4.67;2.85;;;;;;;25.62;41.15;94576.61;1685411;84;21136;-62
2022/08/02 10:09:21;;;;;;;3.45;2.40;;;;;;;25.47;41.20;94577.90;1657731;84;21152;-60
2022/08/02 10:11:49;;;;;;;6.55;1.95;;;;;;;25.39;42.87;94564.38;1673770;84;21039;-57
2022/08/02 10:14:19;;;;;;;3.40;2.10;;;;;;;25.46;42.85;94562.30;1664687;84;21656;-59
2022/08/02 10:16:46;;;;;;;3.80;2.10;;;;;;;25.68;44.07;94564.58;1649185;85;21137;-61
2022/08/02 10:19:15;;;;;;;2.00;1.90;;;;;;;25.92;43.15;94561.42;1673508;84;21014;-57
2022/08/02 10:21:51;;;;;;;5.12;2.10;;;;;;;26.12;42.78;94572.02;1650089;84;21133;-60
2022/08/02 10:24:22;;;;;;;2.50;1.75;;;;;;;26.41;40.32;94567.13;1660689;85;21146;-60
2022/08/02 10:26:50;;;;;;;2.17;1.98;;;;;;;26.48;39.93;94564.39;1641168;85;21144;-62
2022/08/02 10:29:22;;;;;;;3.17;1.80;;;;;;;26.73;38.66;94564.72;1680384;84;21565;-61
2022/08/02 10:32:00;;;;;;;3.37;2.20;;;;;;;26.84;39.15;94555.27;1652362;84;21125;-60
2022/08/02 10:34:32;;;;;;;3.58;2.20;;;;;;;26.97;39.90;94553.73;1648094;84;21276;-60
2022/08/02 10:37:03;;;;;;;1.92;1.72;;;;;;;27.08;40.66;94552.00;1654925;83;21253;-57
2022/08/02 10:39:41;;;;;;;5.97;2.02;;;;;;;27.22;38.94;94554.78;1677458;85;21640;-58
2022/08/02 10:42:10;;;;;;;2.20;1.57;;;;;;;27.05;37.92;94548.11;1648684;85;21097;-58
2022/08/02 10:44:39;;;;;;;2.08;1.87;;;;;;;27.06;39.66;94549.63;1664213;84;21035;-54
2022/08/02 10:47:24;;;;;;;2.80;2.27;;;;;;;27.06;39.15;94549.63;1672893;84;21226;-57
2022/08/02 10:49:56;;;;;;;2.83;2.00;;;;;;;26.92;39.50;94553.89;1667184;84;20915;-57
2022/08/02 10:52:27;;;;;;;4.08;1.95;;;;;;;26.79;40.23;94560.43;1650293;85;21042;-60
2022/08/02 10:55:10;;;;;;;5.42;2.45;;;;;;;26.57;39.88;94550.42;1672741;85;21098;-56
2022/08/02 10:57:40;;;;;;;4.33;2.10;;;;;;;26.60;39.47;94551.48;1672598;84;21086;-55
2022/08/02 11:00:13;;;;;;;2.65;1.80;;;;;;;26.79;38.93;94551.19;1648548;86;22008;-64
2022/08/02 11:02:45;;;;;;;2.10;1.72;;;;;;;27.22;39.53;94551.95;1665401;84;21582;-59
2022/08/02 11:05:17;;;;;;;3.20;1.95;;;;;;;27.91;39.65;94564.27;1650521;85;21128;-56
2022/08/02 11:07:49;;;;;;;1.72;1.62;;;;;;;28.31;37.86;94556.09;1656905;84;21030;-60
2022/08/02 11:10:35;;;;;;;1.80;1.62;;;;;;;28.45;36.65;94563.70;1642030;85;21139;-57
2022/08/02 11:13:14;;;;;;;1.85;1.70;;;;;;;28.37;36.85;94562.98;1640282;85;22139;-61
2022/08/02 11:16:07;;;;;;;4.50;2.15;;;;;;;28.47;37.56;94567.48;1643413;85;21030;-58
2022/08/02 11:18:55;;;;;;;2.75;1.82;;;;;;;28.58;37.87;94567.75;1660457;85;21081;-57
2022/08/02 11:21:28;;;;;;;3.08;1.47;;;;;;;29.09;35.19;94561.09;1618609;86;21117;-62
2022/08/02 11:23:56;;;;;;;1.55;1.25;;;;;;;29.18;35.61;94567.58;1649348;85;22184;-57
2022/08/02 11:26:35;;;;;;;3.05;1.57;;;;;;;29.35;34.65;94580.45;1650213;84;21965;-66
2022/08/02 11:29:04;;;;;;;1.80;1.40;;;;;;;29.69;34.37;94572.91;1637020;86;21059;-60
2022/08/02 11:31:41;;;;;;;1.92;1.72;;;;;;;29.71;34.80;94578.02;1586112;88;21589;-63
2022/08/02 11:34:10;;;;;;;3.55;2.08;;;;;;;29.90;33.96;94575.52;1596871;87;21121;-56
2022/08/02 11:36:50;;;;;;;3.47;1.45;;;;;;;30.26;33.84;94588.61;1568158;89;21594;-54
2022/08/02 11:39:29;;;;;;;1.45;1.35;;;;;;;30.34;32.40;94577.92;1596932;88;21182;-56
2022/08/02 11:41:59;;;;;;;1.90;1.30;;;;;;;30.42;32.61;94575.02;1641363;85;21951;-57
2022/08/02 11:44:35;;;;;;;2.90;1.57;;;;;;;30.05;32.21;94576.09;1642195;84;21023;-60
2022/08/02 11:47:07;;;;;;;3.95;1.20;;;;;;;29.60;32.57;94581.28;1587245;87;21017;-58
2022/08/02 11:49:34;;;;;;;6.20;1.72;;;;;;;29.65;32.39;94578.23;1612363;86;21408;-60
2022/08/02 11:52:05;;;;;;;3.35;1.17;;;;;;;29.96;33.10;94585.95;1622438;83;21252;-58
2022/08/02 11:54:53;;;;;;;1.67;1.15;;;;;;;29.93;32.07;94584.28;1652635;85;21086;-56
2022/08/02 11:57:21;;;;;;;2.77;1.00;;;;;;;29.90;31.90;94579.77;1622624;86;21169;-61